createdAt,value
2022-08-11T00:04:37.968Z,20.55
2022-08-11T00:09:42.197Z,20.44
2022-08-11T00:14:45.742Z,20.20
2022-08-11T00:20:11.787Z,20.21
2022-08-11T00:25:16.737Z,20.15
2022-08-11T00:30:19.679Z,20.16
2022-08-11T00:35:51.587Z,20.17
2022-08-11T00:40:56.767Z,20.05
2022-08-11T00:46:11.879Z,19.93
2022-08-11T00:51:18.790Z,19.80
2022-08-11T00:56:49.856Z,19.76
2022-08-11T01:02:07.036Z,19.79
2022-08-11T01:08:00.433Z,19.56
2022-08-11T01:13:11.103Z,19.51
2022-08-11T01:18:55.589Z,19.37
2022-08-11T01:24:37.276Z,19.30
2022-08-11T01:30:08.746Z,19.19
2022-08-11T01:35:32.333Z,19.32
2022-08-11T01:40:57.534Z,19.13
2022-08-11T01:46:03.520Z,19.19
2022-08-11T01:51:21.635Z,19.00
2022-08-11T01:56:34.321Z,19.07
2022-08-11T02:01:50.634Z,18.97
2022-08-11T02:07:02.612Z,19.00
2022-08-11T02:12:17.781Z,18.88
2022-08-11T02:17:22.149Z,18.89
2022-08-11T02:22:50.421Z,18.64
2022-08-11T02:27:56.997Z,18.72
2022-08-11T02:33:20.158Z,18.86
2022-08-11T02:38:30.710Z,18.68
2022-08-11T02:43:47.295Z,18.64
2022-08-11T02:49:45.715Z,18.61
2022-08-11T02:55:48.735Z,18.57
2022-08-11T03:00:53.597Z,18.51
2022-08-11T03:06:06.927Z,18.41
2022-08-11T03:11:33.104Z,18.28
2022-08-11T03:16:48.337Z,18.32
2022-08-11T03:22:02.949Z,17.89
2022-08-11T03:27:10.967Z,17.89
2022-08-11T03:32:25.974Z,17.86
2022-08-11T03:37:52.789Z,17.97
2022-08-11T03:42:59.564Z,17.87
2022-08-11T03:48:10.518Z,17.95
2022-08-11T03:53:18.482Z,18.00
2022-08-11T03:58:38.224Z,17.82
2022-08-11T04:04:00.718Z,17.92
2022-08-11T04:09:25.125Z,17.76
2022-08-11T04:15:04.165Z,17.61
2022-08-11T04:20:31.231Z,17.40
2022-08-11T04:25:51.064Z,17.48
2022-08-11T04:31:12.251Z,17.47
2022-08-11T04:36:50.662Z,17.63
2022-08-11T04:42:50.974Z,17.87
2022-08-11T04:48:25.596Z,17.96
2022-08-11T04:53:54.845Z,18.24
2022-08-11T04:59:56.755Z,18.51
2022-08-11T05:05:34.592Z,18.42
2022-08-11T05:10:53.153Z,18.57
2022-08-11T05:16:15.050Z,18.71
2022-08-11T05:21:45.121Z,18.83
2022-08-11T05:27:12.903Z,18.78
2022-08-11T05:32:35.202Z,18.97
2022-08-11T05:37:58.085Z,19.13
2022-08-11T05:43:21.288Z,19.30
2022-08-11T05:48:41.984Z,19.33
2022-08-11T05:54:28.705Z,19.41
2022-08-11T05:59:30.792Z,19.60
2022-08-11T06:04:33.888Z,19.73
2022-08-11T06:09:39.438Z,19.90
2022-08-11T06:14:44.326Z,20.06
2022-08-11T06:19:48.910Z,20.17
2022-08-11T06:24:56.310Z,20.32
2022-08-11T06:29:59.875Z,20.38
2022-08-11T06:35:13.160Z,20.59
2022-08-11T06:40:28.364Z,20.71
2022-08-11T06:45:34.429Z,20.84
2022-08-11T06:50:55.247Z,21.13
2022-08-11T06:56:17.573Z,21.20
2022-08-11T07:01:33.004Z,21.41
2022-08-11T07:07:09.103Z,21.49
2022-08-11T07:12:57.736Z,21.64
2022-08-11T07:18:22.308Z,21.75
2022-08-11T07:23:48.346Z,22.10
2022-08-11T07:28:59.098Z,22.16
2022-08-11T07:34:12.208Z,22.50
2022-08-11T07:39:22.000Z,22.62
2022-08-11T07:44:34.414Z,22.88
2022-08-11T07:49:57.145Z,22.95
2022-08-11T07:55:01.507Z,23.22
2022-08-11T08:00:29.864Z,23.53
2022-08-11T08:05:52.019Z,23.89
2022-08-11T08:11:14.024Z,23.86
2022-08-11T08:16:35.725Z,24.03
2022-08-11T08:21:39.831Z,24.25
2022-08-11T08:26:59.541Z,24.50
2022-08-11T08:32:04.021Z,24.81
2022-08-11T08:37:16.215Z,24.94
2022-08-11T08:42:32.059Z,25.17
2022-08-11T08:47:42.881Z,25.10
2022-08-11T08:52:50.596Z,25.30
2022-08-11T08:57:55.670Z,25.80
2022-08-11T09:03:08.482Z,25.62
2022-08-11T09:08:21.661Z,25.71
2022-08-11T09:13:24.356Z,26.38
2022-08-11T09:18:33.532Z,26.51
2022-08-11T09:24:17.066Z,26.26
2022-08-11T09:29:17.952Z,26.56
2022-08-11T09:34:22.636Z,26.52
2022-08-11T09:39:43.696Z,27.15
2022-08-11T09:44:50.036Z,26.80
2022-08-11T09:50:00.447Z,26.98
2022-08-11T09:55:11.116Z,27.50
2022-08-11T10:00:15.903Z,27.85
2022-08-11T10:05:43.267Z,27.58
2022-08-11T10:10:46.985Z,27.37
2022-08-11T10:16:00.058Z,27.65
2022-08-11T10:21:28.180Z,28.34
2022-08-11T10:26:54.155Z,28.42
2022-08-11T10:32:15.694Z,28.44
2022-08-11T10:37:22.155Z,28.38
2022-08-11T10:42:57.103Z,28.50
2022-08-11T10:48:01.095Z,28.77
2022-08-11T10:53:22.997Z,28.93
2022-08-11T10:58:43.429Z,28.81
2022-08-11T11:03:46.751Z,29.16
2022-08-11T11:08:55.526Z,29.48
2022-08-11T11:14:20.860Z,29.31
2022-08-11T11:19:30.379Z,29.38
2022-08-11T11:24:43.739Z,29.72
2022-08-11T11:29:55.987Z,29.79
2022-08-11T11:35:28.043Z,29.67
2022-08-11T11:40:32.417Z,29.88
2022-08-11T11:45:35.648Z,29.69
2022-08-11T11:50:39.258Z,30.20
2022-08-11T11:55:43.763Z,30.52
2022-08-11T12:01:04.409Z,29.85
2022-08-11T12:06:08.789Z,30.30
2022-08-11T12:11:31.087Z,30.32
2022-08-11T12:16:36.781Z,30.34
2022-08-11T12:22:02.945Z,30.65
2022-08-11T12:27:25.221Z,30.50
2022-08-11T12:32:30.366Z,30.76
2022-08-11T12:37:34.829Z,31.27
2022-08-11T12:42:57.653Z,31.30
2022-08-11T12:48:59.078Z,30.46
2022-08-11T12:53:55.260Z,31.28
2022-08-11T12:59:17.887Z,31.85
2022-08-11T13:04:38.624Z,32.06
2022-08-11T13:09:41.974Z,31.72
2022-08-11T13:14:46.207Z,31.80
2022-08-11T13:19:49.795Z,31.43
2022-08-11T13:24:55.208Z,31.65
2022-08-11T13:30:13.865Z,31.46
2022-08-11T13:35:17.239Z,31.67
2022-08-11T13:40:33.316Z,31.60
2022-08-11T13:45:47.571Z,31.41
2022-08-11T13:51:07.647Z,32.18
2022-08-11T13:56:10.466Z,31.57
2022-08-11T14:02:20.730Z,30.55
2022-08-11T14:06:38.737Z,30.84
2022-08-11T14:12:21.150Z,31.34
2022-08-11T14:17:48.385Z,31.22
2022-08-11T14:22:47.858Z,31.13
2022-08-11T14:28:35.230Z,31.22
2022-08-11T14:33:17.290Z,31.80
2022-08-11T14:38:23.407Z,31.53
2022-08-11T14:44:12.532Z,30.90
2022-08-11T14:49:08.549Z,30.61
2022-08-11T14:54:29.406Z,31.22
2022-08-11T14:59:33.558Z,30.98
2022-08-11T15:04:38.140Z,31.23
2022-08-11T15:10:09.870Z,31.21
2022-08-11T15:15:25.575Z,31.01
2022-08-11T15:20:48.204Z,30.35
2022-08-11T15:25:58.995Z,30.72
2022-08-11T15:31:20.718Z,30.42
2022-08-11T15:36:42.814Z,30.45
2022-08-11T15:42:07.986Z,30.58
2022-08-11T15:47:10.743Z,30.43
2022-08-11T15:52:19.384Z,30.45
2022-08-11T15:57:39.779Z,30.41
2022-08-11T16:03:01.898Z,30.41
2022-08-11T16:08:06.336Z,30.39
2022-08-11T16:13:29.861Z,30.33
2022-08-11T16:18:41.487Z,30.17
2022-08-11T16:23:48.142Z,30.12
2022-08-11T16:28:52.354Z,30.12
2022-08-11T16:33:55.688Z,29.99
2022-08-11T16:39:00.702Z,29.89
2022-08-11T16:44:36.810Z,29.80
2022-08-11T16:49:47.200Z,29.82
2022-08-11T16:54:56.963Z,29.85
2022-08-11T17:00:06.158Z,29.67
2022-08-11T17:05:29.615Z,29.55
2022-08-11T17:11:00.190Z,29.43
2022-08-11T17:16:12.546Z,29.45
2022-08-11T17:21:19.984Z,29.30
2022-08-11T17:26:51.465Z,29.18
2022-08-11T17:32:13.141Z,29.08
2022-08-11T17:37:17.109Z,29.09
2022-08-11T17:42:39.432Z,29.01
2022-08-11T17:47:59.796Z,28.90
2022-08-11T17:53:20.639Z,28.81
2022-08-11T17:58:43.334Z,28.78
2022-08-11T18:03:57.309Z,28.68
2022-08-11T18:09:20.298Z,28.53
2022-08-11T18:14:42.494Z,28.38
2022-08-11T18:20:02.852Z,28.34
2022-08-11T18:25:29.874Z,28.12
2022-08-11T18:31:03.975Z,28.00
2022-08-11T18:36:26.138Z,27.81
2022-08-11T18:41:47.884Z,27.73
2022-08-11T18:47:09.867Z,27.55
2022-08-11T18:52:33.065Z,27.44
2022-08-11T18:57:55.184Z,27.23
2022-08-11T19:03:16.817Z,27.09
2022-08-11T19:08:37.894Z,26.96
2022-08-11T19:13:58.273Z,26.79
2022-08-11T19:19:20.358Z,26.66
2022-08-11T19:24:41.261Z,26.44
2022-08-11T19:30:13.230Z,26.38
2022-08-11T19:35:36.298Z,26.30
2022-08-11T19:40:57.550Z,26.10
2022-08-11T19:46:19.369Z,26.08
2022-08-11T19:51:42.465Z,25.99
2022-08-11T19:57:03.280Z,25.86
2022-08-11T20:02:24.109Z,25.81
2022-08-11T20:07:46.578Z,25.76
2022-08-11T20:13:07.337Z,25.63
2022-08-11T20:18:29.816Z,25.54
2022-08-11T20:23:51.741Z,25.49
2022-08-11T20:29:13.362Z,25.29
2022-08-11T20:34:36.271Z,25.19
2022-08-11T20:39:59.025Z,25.17
2022-08-11T20:45:23.586Z,25.03
2022-08-11T20:50:45.987Z,24.88
2022-08-11T20:56:08.267Z,24.78
2022-08-11T21:01:38.934Z,24.66
2022-08-11T21:07:02.077Z,24.58
2022-08-11T21:12:24.537Z,24.53
2022-08-11T21:18:00.624Z,24.41
2022-08-11T21:23:29.435Z,24.36
2022-08-11T21:28:52.359Z,24.24
2022-08-11T21:34:13.213Z,24.22
2022-08-11T21:39:36.327Z,24.02
2022-08-11T21:44:58.202Z,23.93
2022-08-11T21:50:18.346Z,23.71
2022-08-11T21:55:38.948Z,23.73
2022-08-11T22:01:00.956Z,23.82
2022-08-11T22:06:21.512Z,23.80
2022-08-11T22:11:41.927Z,23.82
2022-08-11T22:17:03.197Z,23.55
2022-08-11T22:22:35.305Z,23.45
2022-08-11T22:28:04.495Z,23.45
2022-08-11T22:33:28.851Z,23.34
2022-08-11T22:38:50.243Z,23.11
2022-08-11T22:44:10.353Z,23.12
2022-08-11T22:49:56.982Z,22.95
2022-08-11T22:55:13.775Z,22.90
2022-08-11T23:00:34.893Z,22.87
2022-08-11T23:05:56.904Z,22.76
2022-08-11T23:11:17.056Z,22.73
2022-08-11T23:16:37.422Z,22.55
2022-08-11T23:21:59.405Z,22.39
2022-08-11T23:27:21.116Z,22.41
2022-08-11T23:32:42.603Z,22.32
2022-08-11T23:38:04.296Z,22.26
2022-08-11T23:43:24.525Z,22.08
2022-08-11T23:48:46.657Z,22.15
2022-08-11T23:54:08.837Z,22.00
2022-08-11T23:59:29.378Z,21.84
